Pembroke Township, Illinois
Current Conditions -  °F | °C
As of 8:55 PM on Thursday 27 Nov 2014 (Local Time) from KRZL Reporting Station
Overcast Overcast  
Wind Chill: 17°   Ceiling: 3800
Heat Index: 23°   Visibility: 10mi
Dew Point: 19°   Wind: 5mph
Humidity: 86%   Direction: 300°WNW
Pressure: 30.4"   Gusts: NA
Location:  41.06°N, 87.59°W
Report Text: KRZL 280255Z AUTO 30004KT 10SM OVC038 M05/M07 A3040 RMK AO2
Loading
Personal Weather Stations






























Interactive Weather Map New forecast layout! Learn more

10-Day Weather Forecast

Advertisements
Track Severe Weather on mobile